Time;durP1;ratioP1;P1;durP2;ratioP2;P2;SDS_P1;SDS_P2;PMS_P1;PMS_P2;Temp;Humidity;BMP_temperature;BMP_pressure;BME280_temperature;BME280_humidity;BME280_pressure;Samples;Min_cycle;Max_cycle;Signal;HPM_P1;HPM_P2
2022/02/03 00:00:19;;;;;;;2.13;2.03;;;6.10;99.90;;;;;;5003861;28;20207;-74
2022/02/03 00:02:55;;;;;;;2.05;1.95;;;6.10;99.90;;;;;;5002147;28;20239;-74
2022/02/03 00:05:30;;;;;;;1.70;1.60;;;6.00;99.90;;;;;;5003887;28;20588;-73
2022/02/03 00:08:06;;;;;;;2.05;1.95;;;6.00;99.90;;;;;;5005615;28;20216;-74
2022/02/03 00:16:41;;;;;;;2.00;1.90;;;5.90;99.90;;;;;;5002030;28;20234;-73
2022/02/03 00:22:05;;;;;;;2.08;1.98;;;5.80;99.90;;;;;;5004767;28;20199;-74
2022/02/03 00:24:53;;;;;;;2.28;2.17;;;5.80;99.90;;;;;;5027619;28;20198;-73
2022/02/03 00:27:37;;;;;;;2.05;1.95;;;5.80;99.90;;;;;;5023913;28;20414;-73
2022/02/03 00:30:08;;;;;;;2.05;1.95;;;5.80;99.90;;;;;;5023973;28;20199;-73
2022/02/03 00:36:02;;;;;;;2.20;2.10;;;5.70;99.90;;;;;;4999744;28;20233;-74
2022/02/03 00:49:45;;;;;;;2.08;1.98;;;5.60;99.90;;;;;;5028351;28;20744;-75
2022/02/03 00:52:13;;;;;;;1.67;1.58;;;5.60;99.90;;;;;;5027780;28;20654;-74
2022/02/03 00:54:40;;;;;;;2.55;2.35;;;5.60;99.90;;;;;;5029128;28;20697;-72
2022/02/03 00:57:12;;;;;;;2.20;2.10;;;5.50;99.90;;;;;;5076017;22;20244;-91
2022/02/03 00:59:41;;;;;;;1.77;1.67;;;5.60;99.90;;;;;;4981765;28;20231;-90
2022/02/03 01:02:18;;;;;;;2.03;1.92;;;5.50;99.90;;;;;;4985591;28;20205;-91
2022/02/03 01:04:51;;;;;;;1.90;1.80;;;5.50;99.90;;;;;;4984509;28;20217;-91
2022/02/03 01:07:26;;;;;;;1.60;1.60;;;5.50;99.90;;;;;;4983762;28;20204;-92
2022/02/03 01:10:03;;;;;;;2.00;1.90;;;5.50;99.90;;;;;;4968090;28;20237;-91
2022/02/03 01:12:42;;;;;;;1.60;1.60;;;5.60;99.90;;;;;;4974291;28;20209;-90
2022/02/03 01:15:19;;;;;;;1.60;1.60;;;5.60;99.90;;;;;;4981622;28;20201;-92
2022/02/03 01:18:07;;;;;;;1.20;1.20;;;5.70;99.90;;;;;;4979216;28;20209;-91
2022/02/03 01:21:20;;;;;;;1.40;1.40;;;5.80;99.90;;;;;;4980907;28;20285;-91
2022/02/03 01:35:01;;;;;;;2.00;1.90;;;6.00;99.90;;;;;;4998989;28;20223;-92
2022/02/03 01:37:48;;;;;;;1.65;1.55;;;6.00;99.90;;;;;;4993341;28;20298;-93
2022/02/03 01:46:09;;;;;;;2.00;1.90;;;5.90;99.90;;;;;;4976555;28;20695;-91
2022/02/03 01:48:51;;;;;;;2.00;1.90;;;5.90;99.90;;;;;;4999756;28;20193;-91
2022/02/03 01:51:42;;;;;;;2.00;2.00;;;5.80;99.90;;;;;;5011987;28;20287;-90
2022/02/03 01:54:25;;;;;;;1.80;1.80;;;5.80;99.90;;;;;;5004748;28;20203;-92
2022/02/03 01:57:09;;;;;;;2.20;2.10;;;5.80;99.90;;;;;;5007547;28;20244;-90
2022/02/03 01:59:42;;;;;;;1.33;1.30;;;5.70;99.90;;;;;;5007071;28;20208;-90
2022/02/03 02:02:10;;;;;;;2.15;2.05;;;5.80;99.90;;;;;;5001604;28;20232;-90
2022/02/03 02:05:05;;;;;;;1.70;1.70;;;5.70;99.90;;;;;;5000928;28;20272;-91
2022/02/03 02:07:57;;;;;;;1.75;1.75;;;5.70;99.90;;;;;;4995147;28;20221;-90
2022/02/03 02:11:10;;;;;;;1.52;1.42;;;5.70;99.90;;;;;;4988533;28;20197;-92
2022/02/03 02:17:00;;;;;;;1.63;1.60;;;5.70;99.90;;;;;;4996432;28;20220;-91
2022/02/03 02:19:45;;;;;;;1.80;1.70;;;5.80;99.90;;;;;;5004495;28;20192;-91
2022/02/03 02:39:09;;;;;;;1.73;1.73;;;5.80;99.90;;;;;;4994640;28;20256;-92
2022/02/03 02:44:48;;;;;;;2.35;2.25;;;5.70;99.90;;;;;;4992137;28;20251;-89
2022/02/03 02:47:26;;;;;;;2.10;2.00;;;5.70;99.90;;;;;;4986660;28;20267;-91
2022/02/03 02:50:04;;;;;;;1.90;1.80;;;5.70;99.90;;;;;;4988085;28;20204;-90
2022/02/03 02:52:42;;;;;;;2.00;1.90;;;5.70;99.90;;;;;;4989202;28;20691;-90
2022/02/03 02:55:32;;;;;;;2.00;1.90;;;5.60;99.90;;;;;;4991817;28;20284;-90
2022/02/03 02:58:21;;;;;;;1.50;1.50;;;5.60;99.90;;;;;;4987285;28;20300;-91
2022/02/03 03:42:16;;;;;;;1.63;1.60;;;5.50;99.90;;;;;;5011702;28;20275;-91
2022/02/03 03:48:10;;;;;;;1.88;1.80;;;5.50;99.90;;;;;;4993113;28;20221;-89
2022/02/03 03:53:43;;;;;;;1.83;1.73;;;5.50;99.90;;;;;;5010719;28;20197;-90
2022/02/03 03:56:28;;;;;;;1.98;1.98;;;5.60;99.90;;;;;;5005774;28;20284;-89
2022/02/03 04:56:35;;;;;;;1.83;1.83;;;5.30;99.90;;;;;;5092000;27;1324824;-75
2022/02/03 05:00:00;;;;;;;1.73;1.65;;;5.30;99.90;;;;;;5074709;28;20848;-75
2022/02/03 05:02:40;;;;;;;2.40;2.30;;;5.30;99.90;;;;;;5075288;28;20193;-75
2022/02/03 05:05:38;;;;;;;1.70;1.70;;;5.30;99.90;;;;;;5076687;28;20228;-74
2022/02/03 05:08:31;;;;;;;1.90;1.90;;;5.30;99.90;;;;;;5082159;28;20221;-75
2022/02/03 05:11:34;;;;;;;1.65;1.65;;;5.30;99.90;;;;;;5060019;28;20219;-74
2022/02/03 05:20:49;;;;;;;2.20;2.10;;;5.20;99.90;;;;;;5092123;28;20312;-76
2022/02/03 05:24:00;;;;;;;2.30;2.20;;;5.20;99.90;;;;;;5103698;28;20651;-78
2022/02/03 05:26:57;;;;;;;2.22;2.13;;;5.30;99.90;;;;;;5101713;28;20212;-77
2022/02/03 05:42:20;;;;;;;1.80;1.70;;;5.10;99.90;;;;;;5103809;27;20236;-74
2022/02/03 05:45:17;;;;;;;1.58;1.58;;;5.00;99.90;;;;;;5103664;28;20211;-76
2022/02/03 05:48:17;;;;;;;2.47;2.38;;;5.00;99.90;;;;;;5097386;28;20225;-74
2022/02/03 05:51:08;;;;;;;2.20;2.10;;;5.00;99.90;;;;;;5104922;28;20224;-74
2022/02/03 06:02:04;;;;;;;1.92;1.92;;;5.00;99.90;;;;;;5100372;27;20228;-77
2022/02/03 06:04:48;;;;;;;1.63;1.63;;;4.90;99.90;;;;;;5104063;28;20220;-74
2022/02/03 06:07:42;;;;;;;2.28;2.17;;;5.00;99.90;;;;;;5093942;27;20404;-75
2022/02/03 06:12:57;;;;;;;2.03;1.92;;;4.90;99.90;;;;;;5079015;28;20224;-76
2022/02/03 06:15:32;;;;;;;2.50;2.35;;;4.80;99.90;;;;;;5101854;28;20319;-79
2022/02/03 06:23:58;;;;;;;2.03;1.92;;;4.80;99.90;;;;;;5097965;27;20216;-78
2022/02/03 06:29:12;;;;;;;2.15;2.05;;;4.90;99.90;;;;;;5088422;28;20764;-76
2022/02/03 06:31:42;;;;;;;2.28;2.17;;;4.90;99.90;;;;;;5089354;28;20250;-75
2022/02/03 06:34:10;;;;;;;2.38;2.28;;;4.90;99.90;;;;;;5064841;28;20219;-77
2022/02/03 06:36:39;;;;;;;2.05;1.95;;;4.80;99.90;;;;;;5067342;28;20236;-75
2022/02/03 06:39:14;;;;;;;2.30;2.20;;;4.80;99.90;;;;;;5065121;28;20280;-76
2022/02/03 06:41:41;;;;;;;1.90;1.80;;;4.90;99.90;;;;;;5070951;28;20197;-75
2022/02/03 06:44:08;;;;;;;2.20;2.10;;;4.90;99.90;;;;;;5069045;28;20222;-75
2022/02/03 06:46:38;;;;;;;2.00;1.90;;;4.80;99.90;;;;;;5068753;28;20522;-75
2022/02/03 06:49:12;;;;;;;1.83;1.73;;;4.80;99.90;;;;;;5065603;28;20254;-74
2022/02/03 06:51:49;;;;;;;2.28;2.17;;;4.80;99.90;;;;;;5067832;28;20194;-76
2022/02/03 06:54:23;;;;;;;2.70;2.60;;;4.80;99.90;;;;;;5069093;28;20767;-77
2022/02/03 06:56:55;;;;;;;2.00;1.90;;;4.80;99.90;;;;;;5066191;28;20224;-77
2022/02/03 06:59:29;;;;;;;2.60;2.50;;;4.80;99.90;;;;;;5081238;28;20209;-75
2022/02/03 07:01:56;;;;;;;2.65;2.55;;;4.80;99.90;;;;;;5084978;28;20189;-74
2022/02/03 07:04:27;;;;;;;2.53;2.38;;;4.80;99.90;;;;;;5084861;28;20931;-75
2022/02/03 07:06:56;;;;;;;2.58;2.47;;;4.90;99.90;;;;;;5093223;28;20711;-75
2022/02/03 07:09:23;;;;;;;1.75;1.50;;;4.90;99.90;;;;;;5087855;28;20274;-77
2022/02/03 07:11:50;;;;;;;4.63;1.90;;;4.90;99.90;;;;;;5079302;22;20625;-67
2022/02/03 07:14:17;;;;;;;2.28;2.17;;;4.90;99.90;;;;;;5031697;28;20764;-67
2022/02/03 07:16:48;;;;;;;2.28;2.17;;;4.90;99.90;;;;;;5029071;28;20227;-67
2022/02/03 07:19:16;;;;;;;2.35;2.25;;;4.90;99.90;;;;;;5027950;28;20285;-66
2022/02/03 07:21:43;;;;;;;2.13;2.03;;;4.90;99.90;;;;;;5038401;28;20222;-67
2022/02/03 07:24:11;;;;;;;2.00;1.90;;;4.90;99.90;;;;;;5055830;28;20319;-68
2022/02/03 07:26:38;;;;;;;1.75;1.75;;;4.90;99.90;;;;;;5057173;28;20187;-67
2022/02/03 07:29:05;;;;;;;2.00;1.92;;;4.90;99.90;;;;;;5055203;28;20424;-67
2022/02/03 07:31:32;;;;;;;2.15;2.05;;;4.90;99.90;;;;;;5052303;28;20219;-67
2022/02/03 07:34:05;;;;;;;2.47;2.28;;;4.90;99.90;;;;;;5044711;28;20198;-67
2022/02/03 07:36:32;;;;;;;2.33;2.22;;;4.90;99.90;;;;;;5055292;28;20777;-67
2022/02/03 07:39:01;;;;;;;2.40;2.30;;;4.90;99.90;;;;;;5036414;28;20206;-66
2022/02/03 07:41:30;;;;;;;2.60;2.40;;;4.90;99.90;;;;;;5046057;28;20218;-67
2022/02/03 07:43:57;;;;;;;2.78;2.58;;;4.90;99.90;;;;;;5051548;28;20203;-67
2022/02/03 07:46:24;;;;;;;2.33;2.22;;;5.00;99.90;;;;;;5053451;28;20599;-67
2022/02/03 07:48:53;;;;;;;2.85;2.65;;;5.40;99.90;;;;;;5049669;28;20210;-66
2022/02/03 07:51:20;;;;;;;3.42;3.22;;;6.30;99.90;;;;;;5053482;28;20303;-66
2022/02/03 07:53:47;;;;;;;2.60;2.40;;;7.30;99.90;;;;;;5048611;28;20195;-67
2022/02/03 07:56:14;;;;;;;4.05;3.40;;;8.30;99.90;;;;;;5050749;28;20223;-68
2022/02/03 07:58:42;;;;;;;2.97;2.78;;;9.10;99.90;;;;;;5054105;28;20726;-68
2022/02/03 08:01:09;;;;;;;2.28;2.08;;;9.70;99.90;;;;;;5047854;28;20280;-69
2022/02/03 08:03:41;;;;;;;2.05;1.95;;;10.30;99.90;;;;;;5040912;28;20604;-67
2022/02/03 08:06:12;;;;;;;2.78;2.58;;;10.80;99.90;;;;;;5046482;28;20219;-70
2022/02/03 08:08:43;;;;;;;2.60;2.40;;;11.20;99.90;;;;;;5044610;28;20717;-68
2022/02/03 08:11:15;;;;;;;2.13;2.00;;;11.80;99.90;;;;;;5044594;28;20314;-68
2022/02/03 08:13:51;;;;;;;1.88;1.75;;;12.40;99.90;;;;;;5048692;28;20708;-69
2022/02/03 08:16:23;;;;;;;1.77;1.67;;;13.00;99.90;;;;;;5043790;28;20303;-69
2022/02/03 08:18:56;;;;;;;1.40;1.40;;;13.50;99.90;;;;;;5046557;28;20515;-70
2022/02/03 08:21:23;;;;;;;1.38;1.30;;;13.80;99.90;;;;;;5046534;28;20226;-68
2022/02/03 08:32:17;;;;;;;2.10;2.00;;;14.20;99.90;;;;;;5020805;28;20700;-69
2022/02/03 08:34:56;;;;;;;2.30;2.10;;;14.30;99.90;;;;;;5046232;28;20296;-68
2022/02/03 08:37:40;;;;;;;2.38;2.17;;;14.40;99.90;;;;;;5042822;28;20307;-69
2022/02/03 08:40:12;;;;;;;1.90;1.80;;;14.40;99.90;;;;;;5047069;28;20246;-68
2022/02/03 08:42:39;;;;;;;2.00;1.90;;;14.50;99.90;;;;;;5040638;28;20252;-69
2022/02/03 08:45:09;;;;;;;1.95;1.70;;;14.70;99.90;;;;;;5044821;28;20732;-69
2022/02/03 08:47:36;;;;;;;1.92;1.52;;;15.00;99.90;;;;;;5043920;28;20483;-68
2022/02/03 08:50:07;;;;;;;1.50;1.40;;;15.30;99.90;;;;;;5041366;28;20760;-69
2022/02/03 08:52:41;;;;;;;2.63;1.40;;;15.40;99.90;;;;;;5055816;28;20241;-68
2022/02/03 08:55:21;;;;;;;1.65;1.55;;;15.50;99.90;;;;;;5043381;28;20658;-69
2022/02/03 08:58:17;;;;;;;5.05;2.28;;;15.60;99.50;;;;;;5045941;28;20238;-69
2022/02/03 09:37:12;;;;;;;1.88;1.58;;;16.40;96.60;;;;;;5048235;28;20305;-68
2022/02/03 09:57:04;;;;;;;1.80;1.70;;;17.60;90.00;;;;;;5048529;28;20233;-69
2022/02/03 09:59:38;;;;;;;2.22;2.03;;;17.20;90.90;;;;;;5045621;28;20205;-68
2022/02/03 10:02:10;;;;;;;2.53;2.08;;;17.10;91.50;;;;;;5042204;28;20227;-68
2022/02/03 10:04:46;;;;;;;2.20;2.00;;;16.90;91.90;;;;;;5054583;28;20283;-68
2022/02/03 10:07:20;;;;;;;2.20;1.95;;;16.50;92.00;;;;;;5049281;28;20243;-69
2022/02/03 10:09:48;;;;;;;2.70;2.08;;;16.20;92.00;;;;;;5049267;28;20217;-69
2022/02/03 10:12:15;;;;;;;2.08;1.88;;;15.60;92.80;;;;;;5045199;28;20237;-68
2022/02/03 10:14:45;;;;;;;2.47;2.28;;;15.50;93.40;;;;;;5072728;28;20195;-69
2022/02/03 10:17:13;;;;;;;4.40;1.85;;;15.80;93.90;;;;;;5071692;28;20231;-70
2022/02/03 10:19:43;;;;;;;2.45;2.22;;;16.40;93.50;;;;;;5075421;28;20195;-69
2022/02/03 10:22:17;;;;;;;5.38;2.40;;;16.10;92.60;;;;;;5070899;28;20299;-69
2022/02/03 10:24:48;;;;;;;2.90;2.70;;;16.00;92.80;;;;;;5050959;28;20206;-69
2022/02/03 10:27:27;;;;;;;4.40;2.63;;;16.10;93.10;;;;;;5054850;28;20214;-68
2022/02/03 10:30:22;;;;;;;4.25;2.10;;;16.00;92.80;;;;;;5051249;28;20221;-68
2022/02/03 10:32:49;;;;;;;2.53;2.33;;;16.00;92.90;;;;;;5047555;28;20219;-68
2022/02/03 10:35:25;;;;;;;2.70;2.10;;;16.00;92.90;;;;;;5055045;28;20226;-69
2022/02/03 10:41:35;;;;;;;2.40;2.28;;;16.20;92.40;;;;;;5043207;28;20843;-68
2022/02/03 10:47:03;;;;;;;3.50;2.00;;;16.70;92.10;;;;;;5041850;28;20222;-69
2022/02/03 10:50:07;;;;;;;4.30;2.00;;;16.90;91.90;;;;;;5048714;28;20388;-69
2022/02/03 10:55:40;;;;;;;4.13;1.58;;;17.10;90.70;;;;;;5049042;28;20264;-69
2022/02/03 11:01:24;;;;;;;2.05;1.95;;;17.00;91.30;;;;;;5017724;28;20616;-69
2022/02/03 11:06:47;;;;;;;6.35;2.28;;;17.40;90.50;;;;;;5038005;28;20236;-69
2022/02/03 11:09:20;;;;;;;2.17;1.38;;;17.50;90.50;;;;;;5046173;28;20286;-69
2022/02/03 11:11:55;;;;;;;2.38;1.48;;;17.60;89.70;;;;;;5048876;28;20252;-69
2022/02/03 11:14:23;;;;;;;8.60;2.15;;;17.60;89.60;;;;;;5047814;28;20280;-68
2022/02/03 11:16:51;;;;;;;2.83;1.42;;;17.20;89.70;;;;;;5044532;28;20235;-69
2022/02/03 11:19:23;;;;;;;2.67;1.50;;;17.00;90.50;;;;;;5051012;28;20431;-69
2022/02/03 11:21:57;;;;;;;1.73;1.60;;;17.00;90.40;;;;;;5044821;28;20230;-69
2022/02/03 11:24:29;;;;;;;3.80;1.67;;;17.00;90.50;;;;;;5054572;28;20633;-69
2022/02/03 11:30:56;;;;;;;1.70;1.60;;;17.00;90.10;;;;;;5043525;28;20291;-69
2022/02/03 11:33:39;;;;;;;1.80;1.63;;;16.90;89.00;;;;;;5038429;28;20239;-69
2022/02/03 11:50:42;;;;;;;1.75;1.65;;;17.30;90.30;;;;;;4978075;28;20250;-70
2022/02/03 11:53:33;;;;;;;1.65;1.55;;;17.40;90.80;;;;;;5030610;28;20233;-70
2022/02/03 12:05:41;;;;;;;1.65;1.40;;;16.60;88.40;;;;;;5032123;28;20197;-70
2022/02/03 12:17:41;;;;;;;3.42;1.40;;;15.50;91.10;;;;;;5039898;28;20839;-67
2022/02/03 12:20:15;;;;;;;1.73;1.63;;;15.70;90.50;;;;;;5034055;28;20697;-68
2022/02/03 12:25:41;;;;;;;1.52;1.42;;;15.90;90.60;;;;;;5021371;28;20285;-70
2022/02/03 12:28:22;;;;;;;1.55;1.40;;;16.00;90.50;;;;;;5019269;28;20658;-68
2022/02/03 12:39:11;;;;;;;3.38;2.35;;;16.60;90.20;;;;;;5037175;28;20194;-70
2022/02/03 12:41:42;;;;;;;2.03;1.83;;;16.10;90.50;;;;;;5035673;28;20715;-68
2022/02/03 12:44:17;;;;;;;2.40;2.20;;;16.00;90.70;;;;;;5036526;28;20709;-68
2022/02/03 12:46:46;;;;;;;2.03;1.83;;;15.60;90.90;;;;;;5032736;28;20222;-68
2022/02/03 12:49:13;;;;;;;2.50;1.80;;;15.00;91.70;;;;;;5043399;28;20202;-67
2022/02/03 12:51:40;;;;;;;2.38;1.80;;;14.80;91.80;;;;;;5036264;28;20314;-69
2022/02/03 12:54:11;;;;;;;2.30;1.98;;;14.60;91.60;;;;;;5045206;28;21280;-69
2022/02/03 12:56:38;;;;;;;2.08;1.88;;;14.40;91.80;;;;;;5055489;28;20251;-68
2022/02/03 12:59:09;;;;;;;1.95;1.75;;;14.40;92.10;;;;;;5053830;28;20601;-68
2022/02/03 13:01:39;;;;;;;2.58;2.10;;;14.20;92.10;;;;;;5036164;28;20277;-67
2022/02/03 13:04:12;;;;;;;3.42;2.08;;;14.20;92.20;;;;;;5034280;28;20195;-67
2022/02/03 13:06:44;;;;;;;1.83;1.73;;;14.50;91.90;;;;;;5038263;28;20254;-68
2022/02/03 13:09:12;;;;;;;2.40;1.92;;;14.70;91.60;;;;;;5025291;28;20218;-69
2022/02/03 13:14:27;;;;;;;2.40;2.20;;;15.00;91.30;;;;;;5025272;28;20218;-75
2022/02/03 13:17:01;;;;;;;2.58;2.13;;;15.10;91.00;;;;;;5022079;28;20225;-74
2022/02/03 13:19:42;;;;;;;2.60;2.30;;;14.90;90.70;;;;;;5028064;28;20746;-75
2022/02/03 13:22:18;;;;;;;2.00;1.90;;;14.60;90.50;;;;;;5025243;28;20230;-74
2022/02/03 13:25:15;;;;;;;2.28;2.08;;;14.40;91.00;;;;;;5028207;28;20195;-74
2022/02/03 13:27:51;;;;;;;2.08;1.90;;;14.40;90.90;;;;;;5006462;28;20682;-74
2022/02/03 13:30:37;;;;;;;2.50;2.30;;;14.50;90.90;;;;;;5012370;28;20204;-74
2022/02/03 13:33:05;;;;;;;2.65;2.45;;;14.70;90.90;;;;;;5022979;28;20231;-73
2022/02/03 13:35:47;;;;;;;2.55;2.35;;;15.00;90.70;;;;;;5033179;28;20196;-75
2022/02/03 13:38:23;;;;;;;2.50;2.30;;;15.30;90.50;;;;;;5024423;28;20628;-74
2022/02/03 13:41:06;;;;;;;3.88;2.67;;;15.40;90.20;;;;;;5022706;28;20633;-74
2022/02/03 13:43:38;;;;;;;3.63;3.08;;;15.20;89.20;;;;;;5027017;28;20765;-74
2022/02/03 13:46:06;;;;;;;2.92;2.60;;;14.90;90.00;;;;;;5033449;28;20294;-73
2022/02/03 13:48:33;;;;;;;2.70;2.50;;;14.80;90.60;;;;;;5025455;28;20227;-74
2022/02/03 13:51:02;;;;;;;2.53;2.30;;;14.90;90.50;;;;;;5027173;28;20230;-74
2022/02/03 13:53:36;;;;;;;8.10;5.75;;;15.20;90.60;;;;;;5028823;28;20250;-75
2022/02/03 14:13:51;;;;;;;3.50;2.90;;;15.30;89.40;;;;;;5024245;28;20316;-75
2022/02/03 14:22:08;;;;;;;2.70;2.50;;;14.90;90.20;;;;;;5002337;28;20307;-74
2022/02/03 14:27:24;;;;;;;3.10;2.83;;;15.20;90.80;;;;;;5012212;28;20239;-75
2022/02/03 14:29:54;;;;;;;3.50;3.15;;;15.40;90.80;;;;;;5012763;28;20756;-75
2022/02/03 14:32:30;;;;;;;3.58;3.13;;;15.60;90.00;;;;;;5001395;28;20251;-75
2022/02/03 14:34:58;;;;;;;3.22;2.90;;;15.40;89.50;;;;;;5004642;28;20246;-74
2022/02/03 14:37:40;;;;;;;3.28;2.97;;;15.30;89.40;;;;;;5003031;28;20594;-74
2022/02/03 14:40:25;;;;;;;6.10;4.00;;;14.90;88.90;;;;;;5002723;28;20200;-74
2022/02/03 14:42:53;;;;;;;3.63;3.33;;;14.70;89.40;;;;;;5002468;28;20313;-73
2022/02/03 14:45:20;;;;;;;3.28;2.97;;;14.40;89.30;;;;;;5000903;28;20211;-74
2022/02/03 14:47:47;;;;;;;3.35;3.05;;;14.20;89.00;;;;;;5001893;28;20223;-73
2022/02/03 14:50:14;;;;;;;3.25;2.40;;;14.00;89.00;;;;;;5000842;28;20219;-74
2022/02/03 14:52:57;;;;;;;3.00;2.80;;;13.90;89.40;;;;;;5004345;28;20227;-75
2022/02/03 14:58:21;;;;;;;3.83;3.53;;;13.60;90.10;;;;;;5004821;28;20226;-75
2022/02/03 15:00:49;;;;;;;4.53;3.78;;;13.50;90.30;;;;;;4999819;28;20243;-74
2022/02/03 15:03:17;;;;;;;4.38;3.60;;;13.30;90.50;;;;;;5000716;28;20219;-74
2022/02/03 15:05:45;;;;;;;3.75;3.42;;;13.20;90.70;;;;;;5001463;28;20295;-75
2022/02/03 15:08:18;;;;;;;5.70;3.47;;;13.10;90.60;;;;;;5005032;28;20223;-75
2022/02/03 15:10:52;;;;;;;6.30;4.07;;;13.10;90.40;;;;;;5002253;28;20207;-74
2022/02/03 15:13:35;;;;;;;4.15;3.75;;;13.10;90.60;;;;;;5026630;28;20227;-75
2022/02/03 15:16:03;;;;;;;3.50;3.20;;;13.00;90.50;;;;;;5021707;28;20600;-75
2022/02/03 15:18:30;;;;;;;4.95;3.40;;;13.00;90.70;;;;;;5021331;28;20245;-75
2022/02/03 15:20:57;;;;;;;4.80;4.28;;;12.90;90.70;;;;;;5030326;28;20203;-76
2022/02/03 15:23:25;;;;;;;6.00;3.55;;;12.90;90.90;;;;;;5026970;28;20265;-74
2022/02/03 15:25:54;;;;;;;4.65;3.65;;;12.80;91.00;;;;;;5025872;28;20238;-74
2022/02/03 15:28:22;;;;;;;4.18;3.78;;;12.90;91.20;;;;;;5002100;28;20212;-74
2022/02/03 15:30:49;;;;;;;5.40;4.40;;;12.90;91.10;;;;;;5002325;28;20196;-75
2022/02/03 15:33:22;;;;;;;5.35;4.07;;;12.80;91.00;;;;;;5003648;28;20224;-74
2022/02/03 15:35:52;;;;;;;4.88;4.28;;;12.80;91.00;;;;;;5005669;28;20203;-75
2022/02/03 15:38:21;;;;;;;5.68;4.13;;;12.80;91.00;;;;;;5001365;28;20216;-74
2022/02/03 15:40:50;;;;;;;4.65;4.25;;;12.70;90.90;;;;;;5003267;28;20658;-74
2022/02/03 15:43:26;;;;;;;5.43;4.10;;;12.80;91.00;;;;;;4998465;28;20231;-75
2022/02/03 15:45:57;;;;;;;4.80;4.30;;;12.80;91.10;;;;;;5008505;28;20254;-75
2022/02/03 15:48:33;;;;;;;5.40;4.90;;;12.80;91.10;;;;;;5002262;28;20259;-75
2022/02/03 15:51:14;;;;;;;4.78;4.20;;;12.80;91.20;;;;;;4995347;28;20224;-74
2022/02/03 16:18:38;;;;;;;5.53;4.32;;;12.00;92.90;;;;;;5024001;28;20357;-73
2022/02/03 16:21:15;;;;;;;7.45;4.97;;;12.00;92.90;;;;;;5021492;28;20202;-73
2022/02/03 16:24:01;;;;;;;4.65;4.20;;;12.00;92.90;;;;;;5016527;28;21042;-74
2022/02/03 16:51:46;;;;;;;7.00;4.70;;;11.50;94.10;;;;;;4942531;28;20851;-74
2022/02/03 16:54:16;;;;;;;6.43;5.15;;;11.20;94.50;;;;;;4994847;28;20226;-75
2022/02/03 16:56:44;;;;;;;8.43;6.22;;;10.80;95.00;;;;;;5031748;28;20252;-74
2022/02/03 16:59:11;;;;;;;6.43;5.60;;;10.60;95.60;;;;;;5032097;28;20629;-74
2022/02/03 17:01:38;;;;;;;6.28;5.55;;;10.40;95.90;;;;;;5025929;28;20195;-74
2022/02/03 17:04:07;;;;;;;6.05;5.45;;;10.20;96.10;;;;;;5025834;28;20227;-75
2022/02/03 17:06:34;;;;;;;6.18;5.28;;;10.20;96.60;;;;;;5030453;28;20196;-76
2022/02/03 17:09:01;;;;;;;5.88;4.72;;;10.20;96.50;;;;;;5034133;28;20231;-75
2022/02/03 17:11:28;;;;;;;5.78;5.18;;;10.20;96.90;;;;;;5018789;28;20226;-75
2022/02/03 17:13:55;;;;;;;6.53;4.88;;;10.20;96.50;;;;;;5026873;28;20223;-76
2022/02/03 17:16:23;;;;;;;5.63;5.13;;;10.20;96.70;;;;;;5028702;28;20200;-75
2022/02/03 17:18:52;;;;;;;6.05;5.45;;;10.20;96.90;;;;;;5025069;28;20265;-74
2022/02/03 17:21:23;;;;;;;5.60;5.10;;;10.10;97.10;;;;;;5027478;28;20203;-75
2022/02/03 17:23:50;;;;;;;6.18;5.57;;;10.10;97.20;;;;;;5022840;28;20741;-76
2022/02/03 17:26:23;;;;;;;5.50;4.97;;;10.00;97.50;;;;;;5026568;28;20196;-74
2022/02/03 17:28:55;;;;;;;5.68;4.45;;;10.00;97.60;;;;;;5030755;28;20230;-75
2022/02/03 17:31:29;;;;;;;6.65;5.95;;;9.80;97.70;;;;;;5023738;28;20205;-74
2022/02/03 18:10:07;;;;;;;7.43;6.05;;;9.00;99.90;;;;;;4977756;28;20802;-75
2022/02/03 18:51:35;;;;;;;7.30;5.75;;;8.90;99.90;;;;;;4997250;28;20282;-73
2022/02/03 18:54:14;;;;;;;7.10;6.47;;;8.80;99.90;;;;;;5004791;28;20212;-75
2022/02/03 18:56:49;;;;;;;12.23;9.57;;;8.70;99.90;;;;;;5004397;28;20222;-74
2022/02/03 18:59:34;;;;;;;11.73;9.52;;;8.60;99.90;;;;;;4996467;28;20285;-74
2022/02/03 19:02:37;;;;;;;7.68;6.70;;;8.60;99.90;;;;;;5020956;28;20215;-75
2022/02/03 19:20:53;;;;;;;7.30;6.60;;;8.70;99.90;;;;;;4996791;28;20232;-75
2022/02/03 20:06:48;;;;;;;8.63;7.72;;;8.00;99.90;;;;;;4979147;28;20274;-76
2022/02/03 20:09:24;;;;;;;9.05;8.07;;;8.10;99.90;;;;;;5026164;28;20727;-76
2022/02/03 20:11:51;;;;;;;8.45;7.57;;;8.10;99.90;;;;;;5022233;28;20215;-76
2022/02/03 20:14:20;;;;;;;8.25;6.90;;;8.00;99.90;;;;;;5028733;28;20219;-76
2022/02/03 20:16:48;;;;;;;8.65;7.80;;;8.00;99.90;;;;;;5023956;28;20662;-74
2022/02/03 20:19:15;;;;;;;7.30;6.60;;;8.00;99.90;;;;;;5024560;28;20226;-76
2022/02/03 20:21:44;;;;;;;10.63;8.77;;;7.90;99.90;;;;;;5027030;28;20735;-74
2022/02/03 20:24:11;;;;;;;21.85;15.80;;;7.90;99.90;;;;;;5029139;28;20219;-74
2022/02/03 20:26:41;;;;;;;32.05;20.55;;;7.90;99.90;;;;;;5025205;28;20202;-74
2022/02/03 20:29:08;;;;;;;32.08;21.42;;;7.90;99.90;;;;;;5030705;28;20238;-75
2022/02/03 20:31:35;;;;;;;26.35;18.52;;;7.90;99.90;;;;;;5032379;28;20191;-74
2022/02/03 20:34:02;;;;;;;22.58;15.68;;;7.90;99.90;;;;;;5026263;28;20226;-76
2022/02/03 20:36:29;;;;;;;17.38;12.10;;;7.90;99.90;;;;;;5025830;28;20191;-76
2022/02/03 20:38:58;;;;;;;14.75;11.25;;;7.80;99.90;;;;;;5027042;28;20814;-75
2022/02/03 20:41:27;;;;;;;12.20;8.98;;;7.80;99.90;;;;;;5041680;28;20199;-76
2022/02/03 20:43:55;;;;;;;10.82;7.88;;;7.70;99.90;;;;;;5031772;28;20695;-74
2022/02/03 20:46:22;;;;;;;8.13;7.05;;;7.70;99.90;;;;;;5037367;28;20704;-75
2022/02/03 20:48:50;;;;;;;9.23;7.07;;;7.70;99.90;;;;;;5034359;28;20358;-73
2022/02/03 20:51:19;;;;;;;8.88;7.85;;;7.60;99.90;;;;;;5024099;28;20192;-75
2022/02/03 20:53:48;;;;;;;8.05;7.25;;;7.50;99.90;;;;;;5024567;28;20254;-75
2022/02/03 20:56:18;;;;;;;8.10;7.10;;;7.50;99.90;;;;;;5026458;28;20198;-75
2022/02/03 20:58:46;;;;;;;7.38;6.68;;;7.40;99.90;;;;;;5024149;28;20286;-76
2022/02/03 21:01:18;;;;;;;7.80;7.00;;;7.40;99.90;;;;;;5027481;28;20546;-75
2022/02/03 21:03:48;;;;;;;8.85;7.97;;;7.20;99.90;;;;;;5023875;28;20227;-75
2022/02/03 21:06:15;;;;;;;7.97;7.18;;;7.20;99.90;;;;;;5025040;28;20563;-75
2022/02/03 21:08:46;;;;;;;7.30;6.60;;;7.10;99.90;;;;;;5025764;28;20242;-74
2022/02/03 21:11:14;;;;;;;7.38;6.68;;;7.10;99.90;;;;;;5028013;28;20269;-74
2022/02/03 21:13:42;;;;;;;7.05;6.35;;;7.10;99.90;;;;;;5013301;28;20227;-75
2022/02/03 21:16:09;;;;;;;6.03;5.53;;;7.10;99.90;;;;;;5009275;28;20525;-74
2022/02/03 21:18:40;;;;;;;6.85;6.15;;;7.00;99.90;;;;;;5008836;28;20221;-75
2022/02/03 21:21:08;;;;;;;6.82;6.22;;;7.00;99.90;;;;;;5009327;28;20283;-75
2022/02/03 21:23:36;;;;;;;7.70;6.90;;;7.10;99.90;;;;;;5011689;28;20227;-75
2022/02/03 21:26:06;;;;;;;9.00;7.22;;;7.10;99.90;;;;;;5002126;28;20201;-76
2022/02/03 21:28:36;;;;;;;11.32;7.50;;;7.00;99.90;;;;;;5005625;28;20443;-75
2022/02/03 21:31:06;;;;;;;7.40;6.75;;;7.00;99.90;;;;;;5010885;28;20200;-75
2022/02/03 21:33:45;;;;;;;8.15;7.05;;;7.00;99.90;;;;;;5020641;28;20224;-75
2022/02/03 21:36:12;;;;;;;9.13;7.78;;;7.00;99.90;;;;;;5002446;28;20660;-75
2022/02/03 21:38:42;;;;;;;8.73;7.80;;;7.00;99.90;;;;;;5013076;28;20269;-74
2022/02/03 21:41:11;;;;;;;9.35;8.40;;;7.00;99.90;;;;;;5024459;28;20583;-74
2022/02/03 21:43:38;;;;;;;8.77;6.97;;;6.90;99.90;;;;;;5020989;28;20219;-74
2022/02/03 21:46:08;;;;;;;7.72;7.03;;;6.90;99.90;;;;;;5023226;28;20196;-75
2022/02/03 21:48:36;;;;;;;9.10;8.20;;;6.90;99.90;;;;;;5023573;28;20226;-76
2022/02/03 21:51:05;;;;;;;9.07;8.15;;;6.80;99.90;;;;;;5022850;28;20194;-75
2022/02/03 21:53:34;;;;;;;9.30;8.45;;;6.80;99.90;;;;;;5021650;28;20230;-75
2022/02/03 21:56:01;;;;;;;8.80;7.90;;;6.70;99.90;;;;;;5025458;28;20204;-74
2022/02/03 21:58:29;;;;;;;8.57;7.78;;;6.60;99.90;;;;;;5020163;28;21352;-74
2022/02/03 22:00:57;;;;;;;8.43;7.63;;;6.60;99.90;;;;;;5023535;28;20219;-75
2022/02/03 22:03:27;;;;;;;8.52;7.72;;;6.70;99.90;;;;;;5022063;28;20223;-76
2022/02/03 22:05:55;;;;;;;8.48;7.68;;;6.70;99.90;;;;;;5026306;28;20200;-75
2022/02/03 22:08:22;;;;;;;7.88;7.07;;;6.80;99.90;;;;;;5025577;28;20223;-75
2022/02/03 22:10:49;;;;;;;7.95;7.18;;;6.80;99.90;;;;;;5027410;28;20196;-75
2022/02/03 22:13:16;;;;;;;11.15;9.73;;;6.90;99.90;;;;;;5025279;28;20223;-75
2022/02/03 22:15:43;;;;;;;9.93;8.93;;;6.90;99.90;;;;;;5026827;28;20207;-76
2022/02/03 22:18:14;;;;;;;8.05;7.22;;;7.00;99.90;;;;;;5032817;28;20219;-76
2022/02/03 22:20:52;;;;;;;8.65;7.78;;;7.00;99.90;;;;;;5031622;28;20269;-75
2022/02/03 22:23:33;;;;;;;8.45;7.65;;;7.00;99.90;;;;;;5030179;28;20301;-76
2022/02/03 22:29:22;;;;;;;8.15;7.32;;;6.90;99.90;;;;;;5032559;28;20208;-75
2022/02/03 22:43:33;;;;;;;7.45;6.72;;;6.60;99.90;;;;;;5033063;28;20253;-76
2022/02/03 22:46:06;;;;;;;8.20;7.10;;;6.50;99.90;;;;;;5024672;28;20200;-76
2022/02/03 22:48:34;;;;;;;7.55;6.75;;;6.50;99.90;;;;;;5026710;28;20215;-76
2022/02/03 22:51:03;;;;;;;7.72;6.93;;;6.50;99.90;;;;;;5027169;28;20191;-75